createdAt,value
2022-08-26T00:02:12.755Z,73.47
2022-08-26T00:04:40.955Z,73.39
2022-08-26T00:07:09.454Z,73.42
2022-08-26T00:09:40.100Z,73.24
2022-08-26T00:12:12.402Z,73.17
2022-08-26T00:14:41.212Z,73.58
2022-08-26T00:17:09.679Z,73.76
2022-08-26T00:19:38.359Z,73.75
2022-08-26T00:22:06.714Z,73.74
2022-08-26T00:24:34.999Z,73.64
2022-08-26T00:27:03.378Z,73.45
2022-08-26T00:29:37.408Z,73.30
2022-08-26T00:32:06.665Z,73.34
2022-08-26T00:34:36.307Z,73.24
2022-08-26T00:37:08.934Z,73.20
2022-08-26T00:39:38.688Z,73.14
2022-08-26T00:42:07.038Z,73.15
2022-08-26T00:44:35.328Z,73.21
2022-08-26T00:47:07.963Z,73.23
2022-08-26T00:49:39.991Z,73.10
2022-08-26T00:52:13.159Z,73.20
2022-08-26T00:54:47.044Z,73.32
2022-08-26T00:57:19.958Z,73.38
2022-08-26T00:59:52.840Z,73.35
2022-08-26T01:02:21.790Z,73.61
2022-08-26T01:04:56.489Z,73.79
2022-08-26T01:07:27.397Z,73.72
2022-08-26T01:09:57.095Z,73.73
2022-08-26T01:12:28.740Z,73.91
2022-08-26T01:14:57.321Z,73.95
2022-08-26T01:17:28.549Z,73.75
2022-08-26T01:20:10.057Z,73.73
2022-08-26T01:22:47.624Z,73.83
2022-08-26T01:25:17.471Z,73.82
2022-08-26T01:27:46.577Z,73.62
2022-08-26T01:30:19.161Z,73.55
2022-08-26T01:32:47.787Z,73.58
2022-08-26T01:35:18.184Z,73.43
2022-08-26T01:37:49.913Z,73.73
2022-08-26T01:40:19.817Z,73.85
2022-08-26T01:42:49.471Z,73.94
2022-08-26T01:45:21.969Z,74.20
2022-08-26T01:47:56.776Z,74.44
2022-08-26T01:50:31.698Z,74.35
2022-08-26T01:53:06.628Z,74.40
2022-08-26T01:55:38.623Z,74.56
2022-08-26T01:58:14.132Z,74.12
2022-08-26T02:00:44.081Z,74.28
2022-08-26T02:03:19.625Z,74.53
2022-08-26T02:05:57.029Z,74.64
2022-08-26T02:08:32.081Z,74.55
2022-08-26T02:11:01.291Z,74.33
2022-08-26T02:13:30.591Z,74.20
2022-08-26T02:16:00.855Z,74.33
2022-08-26T02:18:32.867Z,73.99
2022-08-26T02:21:01.559Z,73.56
2022-08-26T02:23:30.600Z,73.87
2022-08-26T02:26:19.824Z,74.08
2022-08-26T02:29:05.169Z,73.95
2022-08-26T02:31:37.051Z,73.96
2022-08-26T02:34:31.214Z,74.02
2022-08-26T02:37:03.717Z,73.98
2022-08-26T02:39:38.928Z,74.10
2022-08-26T02:42:07.447Z,73.83
2022-08-26T02:44:36.661Z,73.56
2022-08-26T02:47:05.227Z,73.75
2022-08-26T02:49:33.377Z,74.00
2022-08-26T02:52:01.898Z,73.90
2022-08-26T02:54:30.101Z,73.84
2022-08-26T02:56:58.242Z,73.95
2022-08-26T02:59:27.073Z,73.63
2022-08-26T03:01:58.166Z,73.86
2022-08-26T03:04:26.240Z,73.96
2022-08-26T03:06:55.517Z,73.94
2022-08-26T03:09:24.525Z,74.25
2022-08-26T03:11:53.128Z,74.12
2022-08-26T03:14:23.995Z,73.84
2022-08-26T03:16:54.103Z,73.81
2022-08-26T03:19:27.516Z,73.84
2022-08-26T03:21:57.838Z,74.05
2022-08-26T03:24:31.693Z,74.33
2022-08-26T03:27:02.011Z,73.96
2022-08-26T03:29:57.881Z,74.30
2022-08-26T03:32:27.243Z,74.59
2022-08-26T03:34:57.288Z,74.54
2022-08-26T03:37:26.383Z,74.29
2022-08-26T03:39:55.343Z,74.34
2022-08-26T03:42:23.706Z,74.47
2022-08-26T03:44:51.741Z,74.38
2022-08-26T03:47:20.217Z,74.54
2022-08-26T03:49:48.399Z,74.48
2022-08-26T03:52:19.317Z,74.34
2022-08-26T03:54:50.703Z,74.35
2022-08-26T03:57:18.879Z,74.09
2022-08-26T03:59:48.848Z,74.08
2022-08-26T04:02:18.196Z,73.81
2022-08-26T04:04:46.470Z,73.71
2022-08-26T04:07:14.980Z,73.88
2022-08-26T04:09:43.555Z,73.86
2022-08-26T04:12:12.416Z,73.74
2022-08-26T04:14:42.646Z,73.81
2022-08-26T04:17:12.963Z,73.97
2022-08-26T04:19:41.213Z,73.97
2022-08-26T04:22:09.736Z,73.68
2022-08-26T04:24:39.820Z,73.75
2022-08-26T04:27:10.403Z,73.93
2022-08-26T04:29:42.207Z,74.09
2022-08-26T04:32:11.137Z,74.27
2022-08-26T04:34:40.208Z,74.18
2022-08-26T04:37:10.844Z,74.08
2022-08-26T04:39:39.123Z,74.16
2022-08-26T04:42:08.645Z,73.99
2022-08-26T04:44:40.152Z,74.20
2022-08-26T04:47:13.913Z,74.31
2022-08-26T04:49:44.431Z,74.29
2022-08-26T04:52:12.793Z,74.33
2022-08-26T04:54:41.952Z,74.34
2022-08-26T04:57:10.391Z,74.23
2022-08-26T04:59:39.578Z,74.11
2022-08-26T05:02:09.425Z,74.13
2022-08-26T05:04:38.277Z,73.95
2022-08-26T05:07:10.857Z,73.77
2022-08-26T05:09:39.988Z,73.80
2022-08-26T05:12:13.203Z,73.80
2022-08-26T05:14:41.726Z,73.79
2022-08-26T05:17:14.814Z,73.83
2022-08-26T05:19:51.687Z,73.80
2022-08-26T05:22:25.744Z,73.90
2022-08-26T05:25:01.254Z,73.91
2022-08-26T05:28:04.250Z,73.77
2022-08-26T05:30:40.346Z,73.71
2022-08-26T05:39:12.569Z,73.85
2022-08-26T05:45:00.998Z,73.85
2022-08-26T05:47:36.014Z,73.78
2022-08-26T05:50:19.111Z,73.90
2022-08-26T05:53:00.829Z,73.67
2022-08-26T05:56:17.013Z,73.61
2022-08-26T05:59:37.904Z,73.39
2022-08-26T06:02:56.031Z,73.48
2022-08-26T06:05:24.543Z,73.37
2022-08-26T06:08:19.376Z,73.22
2022-08-26T06:10:50.968Z,72.87
2022-08-26T06:13:35.195Z,72.49
2022-08-26T06:16:08.864Z,72.21
2022-08-26T06:29:46.629Z,71.65
2022-08-26T06:32:29.140Z,71.18
2022-08-26T06:34:57.789Z,71.18
2022-08-26T06:37:28.823Z,71.27
2022-08-26T06:39:58.358Z,70.83
2022-08-26T06:42:26.472Z,70.07
2022-08-26T06:44:54.706Z,69.61
2022-08-26T06:47:22.654Z,69.68
2022-08-26T06:49:51.112Z,69.55
2022-08-26T06:52:23.097Z,69.34
2022-08-26T06:54:53.021Z,69.62
2022-08-26T06:57:21.201Z,69.42
2022-08-26T06:59:51.121Z,69.29
2022-08-26T07:02:20.839Z,68.75
2022-08-26T07:04:51.207Z,68.89
2022-08-26T07:07:19.429Z,68.69
2022-08-26T07:09:52.647Z,68.57
2022-08-26T07:12:21.656Z,68.27
2022-08-26T07:14:50.327Z,67.57
2022-08-26T07:17:19.339Z,67.45
2022-08-26T07:19:49.160Z,67.10
2022-08-26T07:22:19.063Z,67.11
2022-08-26T07:24:46.966Z,66.76
2022-08-26T07:27:16.694Z,66.46
2022-08-26T07:29:45.874Z,66.23
2022-08-26T07:32:15.343Z,66.04
2022-08-26T07:34:43.844Z,65.40
2022-08-26T07:37:12.240Z,65.37
2022-08-26T07:39:41.759Z,65.13
2022-08-26T07:42:15.470Z,64.81
2022-08-26T07:44:44.297Z,64.55
2022-08-26T07:47:25.808Z,64.62
2022-08-26T07:49:57.497Z,64.23
2022-08-26T07:52:27.601Z,64.25
2022-08-26T07:55:00.758Z,63.75
2022-08-26T07:57:30.440Z,63.12
2022-08-26T07:59:59.167Z,62.82
2022-08-26T08:02:28.844Z,62.54
2022-08-26T08:04:58.008Z,61.98
2022-08-26T08:07:45.092Z,61.07
2022-08-26T08:10:21.702Z,60.82
2022-08-26T08:12:55.422Z,60.64
2022-08-26T08:15:27.881Z,60.14
2022-08-26T08:18:00.204Z,59.96
2022-08-26T08:20:30.097Z,59.72
2022-08-26T08:22:58.040Z,59.44
2022-08-26T08:25:26.230Z,58.08
2022-08-26T08:27:54.154Z,58.38
2022-08-26T08:30:23.272Z,58.37
2022-08-26T08:32:52.399Z,58.02
2022-08-26T08:35:22.661Z,57.60
2022-08-26T08:37:54.267Z,57.11
2022-08-26T08:40:25.363Z,57.38
2022-08-26T08:42:59.295Z,56.69
2022-08-26T08:45:30.475Z,56.62
2022-08-26T08:48:11.718Z,55.40
2022-08-26T08:50:45.747Z,55.82
2022-08-26T08:53:19.378Z,55.78
2022-08-26T08:55:50.190Z,54.67
2022-08-26T08:58:21.670Z,54.15
2022-08-26T09:00:54.767Z,54.31
2022-08-26T09:04:01.530Z,54.65
2022-08-26T09:06:29.691Z,53.32
2022-08-26T09:08:58.391Z,53.06
2022-08-26T09:11:26.367Z,52.59
2022-08-26T09:13:56.208Z,51.81
2022-08-26T09:16:36.515Z,51.04
2022-08-26T09:19:19.309Z,51.17
2022-08-26T09:21:58.812Z,50.96
2022-08-26T09:24:30.282Z,50.79
2022-08-26T09:26:59.153Z,49.73
2022-08-26T09:29:34.045Z,48.24
2022-08-26T09:32:37.579Z,47.74
2022-08-26T09:35:23.766Z,47.09
2022-08-26T09:37:53.162Z,46.07
2022-08-26T09:40:28.400Z,45.78
2022-08-26T09:43:22.237Z,45.93
2022-08-26T09:45:59.458Z,45.13
2022-08-26T09:48:36.191Z,44.91
2022-08-26T09:51:24.421Z,44.75
2022-08-26T09:53:55.365Z,44.69
2022-08-26T09:56:23.531Z,44.06
2022-08-26T09:58:51.910Z,43.67
2022-08-26T10:01:46.399Z,42.70
2022-08-26T10:04:22.150Z,43.19
2022-08-26T10:06:59.750Z,42.87
2022-08-26T10:09:29.878Z,42.80
2022-08-26T10:12:05.846Z,42.77
2022-08-26T10:14:48.465Z,42.01
2022-08-26T10:17:26.781Z,40.65
2022-08-26T10:20:02.817Z,39.74
2022-08-26T10:22:43.609Z,39.41
2022-08-26T10:25:16.034Z,40.23
2022-08-26T10:28:12.974Z,39.91
2022-08-26T10:30:45.841Z,39.69
2022-08-26T10:33:15.500Z,38.40
2022-08-26T10:35:53.285Z,38.98
2022-08-26T10:38:29.550Z,38.87
2022-08-26T10:40:57.439Z,37.85
2022-08-26T10:43:34.678Z,37.80
2022-08-26T10:46:10.258Z,37.00
2022-08-26T10:48:59.806Z,37.24
2022-08-26T10:51:35.646Z,37.13
2022-08-26T10:54:14.209Z,36.72
2022-08-26T10:57:16.550Z,36.27
2022-08-26T11:00:38.330Z,36.08
2022-08-26T11:03:21.696Z,35.61
2022-08-26T11:06:19.552Z,34.74
2022-08-26T11:08:59.668Z,33.42
2022-08-26T11:11:39.625Z,33.56
2022-08-26T11:14:28.398Z,33.46
2022-08-26T11:16:59.090Z,33.28
2022-08-26T11:19:50.537Z,33.95
2022-08-26T11:22:36.254Z,33.49
2022-08-26T11:25:12.963Z,33.25
2022-08-26T11:27:41.694Z,31.61
2022-08-26T11:30:12.658Z,32.28
2022-08-26T11:32:41.526Z,31.45
2022-08-26T11:35:12.542Z,32.65
2022-08-26T11:37:41.229Z,32.52
2022-08-26T11:40:13.433Z,32.22
2022-08-26T11:42:44.966Z,31.44
2022-08-26T11:45:26.902Z,31.71
2022-08-26T11:47:55.003Z,30.84
2022-08-26T11:50:26.169Z,31.56
2022-08-26T11:53:04.303Z,31.08
2022-08-26T11:55:36.538Z,31.45
2022-08-26T11:58:05.857Z,31.13
2022-08-26T12:00:45.752Z,30.59
2022-08-26T12:03:19.926Z,31.05
2022-08-26T12:05:49.440Z,31.20
2022-08-26T12:08:22.124Z,30.87
2022-08-26T12:11:02.554Z,29.75
2022-08-26T12:13:30.556Z,29.84
2022-08-26T12:16:00.318Z,29.26
2022-08-26T12:18:36.977Z,29.07
2022-08-26T12:21:22.197Z,27.65
2022-08-26T12:23:56.259Z,27.02
2022-08-26T12:26:34.062Z,26.44
2022-08-26T12:29:19.711Z,26.63
2022-08-26T12:31:48.816Z,26.91
2022-08-26T12:34:18.517Z,26.98
2022-08-26T12:36:53.907Z,27.70
2022-08-26T12:39:45.246Z,27.86
2022-08-26T12:42:13.064Z,28.33
2022-08-26T12:44:53.905Z,27.63
2022-08-26T12:47:32.686Z,28.06
2022-08-26T12:50:18.425Z,27.78
2022-08-26T12:53:10.627Z,26.77
2022-08-26T12:55:43.831Z,27.37
2022-08-26T12:58:26.175Z,27.47
2022-08-26T13:01:14.578Z,26.73
2022-08-26T13:03:45.277Z,26.53
2022-08-26T13:06:15.902Z,26.07
2022-08-26T13:08:44.281Z,26.96
2022-08-26T13:11:22.551Z,26.39
2022-08-26T13:13:53.499Z,25.35
2022-08-26T13:16:22.330Z,25.69
2022-08-26T13:18:53.671Z,25.43
2022-08-26T13:21:37.569Z,25.22
2022-08-26T13:24:11.678Z,25.23
2022-08-26T13:26:40.734Z,25.64
2022-08-26T13:29:10.617Z,25.40
2022-08-26T13:31:40.457Z,24.41
2022-08-26T13:34:12.027Z,24.99
2022-08-26T13:36:40.298Z,25.53
2022-08-26T13:39:08.203Z,25.43
2022-08-26T13:41:36.759Z,25.00
2022-08-26T13:44:06.983Z,24.71
2022-08-26T13:46:35.046Z,24.03
2022-08-26T13:49:03.917Z,24.09
2022-08-26T13:51:32.395Z,24.16
2022-08-26T13:54:01.144Z,23.82
2022-08-26T13:56:30.156Z,23.41
2022-08-26T13:58:59.770Z,23.33
2022-08-26T14:01:30.105Z,23.18
2022-08-26T14:03:58.875Z,22.97
2022-08-26T14:06:26.830Z,22.95
2022-08-26T14:08:54.749Z,22.70
2022-08-26T14:11:25.045Z,22.66
2022-08-26T14:13:53.179Z,22.17
2022-08-26T14:16:34.679Z,22.14
2022-08-26T14:19:05.022Z,22.33
2022-08-26T14:21:36.799Z,22.32
2022-08-26T14:24:06.342Z,21.76
2022-08-26T14:26:34.598Z,21.99
2022-08-26T14:29:05.912Z,21.57
2022-08-26T14:31:35.599Z,21.30
2022-08-26T14:34:06.292Z,20.81
2022-08-26T14:36:35.239Z,20.62
2022-08-26T14:39:09.261Z,20.47
2022-08-26T14:41:45.616Z,20.57
2022-08-26T14:44:25.257Z,20.31
2022-08-26T14:46:54.452Z,20.03
2022-08-26T14:49:24.393Z,19.95
2022-08-26T14:51:52.354Z,19.55
2022-08-26T14:54:21.298Z,19.19
2022-08-26T14:57:05.122Z,18.93
2022-08-26T14:59:38.352Z,19.13
2022-08-26T15:02:08.068Z,18.54
2022-08-26T15:04:37.267Z,18.74
2022-08-26T15:07:05.347Z,18.07
2022-08-26T15:09:36.353Z,18.31
2022-08-26T15:12:05.667Z,18.20
2022-08-26T15:14:33.749Z,18.31
2022-08-26T15:17:02.029Z,18.01
2022-08-26T15:19:30.118Z,17.73
2022-08-26T15:22:04.940Z,17.14
2022-08-26T15:24:33.151Z,17.20
2022-08-26T15:27:02.204Z,17.49
2022-08-26T15:29:30.467Z,17.07
2022-08-26T15:32:05.428Z,17.25
2022-08-26T15:34:33.726Z,17.26
2022-08-26T15:37:02.302Z,17.43
2022-08-26T15:39:30.474Z,17.22
2022-08-26T15:42:00.029Z,17.36
2022-08-26T15:44:28.722Z,17.03
2022-08-26T15:46:58.781Z,17.00
2022-08-26T15:49:27.595Z,17.01
2022-08-26T15:51:55.657Z,16.96
2022-08-26T15:54:24.521Z,16.83
2022-08-26T15:56:53.262Z,17.08
2022-08-26T15:59:22.285Z,16.90
2022-08-26T16:01:51.797Z,16.79
2022-08-26T16:04:21.486Z,16.57
2022-08-26T16:06:51.615Z,16.70
2022-08-26T16:09:23.912Z,16.61
2022-08-26T16:11:57.419Z,16.66
2022-08-26T16:14:32.882Z,16.51
2022-08-26T16:17:01.282Z,16.94
2022-08-26T16:19:29.738Z,17.03
2022-08-26T16:21:57.959Z,17.34
2022-08-26T16:24:30.241Z,17.59
2022-08-26T16:26:58.824Z,17.36
2022-08-26T16:29:27.321Z,17.62
2022-08-26T16:31:55.279Z,17.73
2022-08-26T16:34:24.733Z,17.85
2022-08-26T16:36:53.237Z,17.98
2022-08-26T16:39:21.284Z,18.12
2022-08-26T16:41:49.314Z,18.26
2022-08-26T16:44:17.439Z,18.20
2022-08-26T16:46:45.802Z,18.44
2022-08-26T16:49:16.916Z,18.64
2022-08-26T16:51:45.589Z,19.05
2022-08-26T16:54:13.767Z,19.45
2022-08-26T16:56:41.682Z,19.90
2022-08-26T16:59:11.577Z,20.37
2022-08-26T17:01:39.877Z,21.02
2022-08-26T17:04:08.252Z,22.20
2022-08-26T17:06:36.855Z,23.27
2022-08-26T17:09:05.206Z,24.60
2022-08-26T17:11:33.842Z,25.82
2022-08-26T17:14:01.865Z,26.46
2022-08-26T17:16:30.174Z,27.97
2022-08-26T17:18:59.032Z,28.73
2022-08-26T17:21:28.414Z,29.43
2022-08-26T17:23:57.573Z,30.36
2022-08-26T17:26:26.921Z,30.65
2022-08-26T17:28:55.437Z,31.28
2022-08-26T17:31:25.374Z,32.14
2022-08-26T17:33:55.556Z,33.61
2022-08-26T17:36:28.015Z,34.53
2022-08-26T17:38:58.633Z,35.57
2022-08-26T17:41:27.131Z,35.99
2022-08-26T17:43:55.390Z,36.80
2022-08-26T17:46:24.634Z,37.80
2022-08-26T17:48:52.837Z,38.66
2022-08-26T17:51:23.014Z,39.54
2022-08-26T17:53:52.011Z,40.54
2022-08-26T17:56:24.200Z,41.74
2022-08-26T17:59:02.487Z,42.55
2022-08-26T18:01:32.773Z,43.09
2022-08-26T18:04:01.675Z,43.42
2022-08-26T18:06:30.836Z,43.56
2022-08-26T18:09:00.707Z,44.02
2022-08-26T18:11:32.145Z,44.34
2022-08-26T18:14:00.463Z,44.65
2022-08-26T18:16:31.853Z,45.28
2022-08-26T18:19:01.323Z,45.56
2022-08-26T18:21:29.332Z,45.68
2022-08-26T18:23:58.309Z,45.58
2022-08-26T18:26:34.505Z,46.26
2022-08-26T18:29:03.376Z,46.61
2022-08-26T18:31:31.553Z,46.63
2022-08-26T18:34:01.372Z,47.11
2022-08-26T18:36:32.699Z,46.95
2022-08-26T18:39:02.601Z,46.71
2022-08-26T18:41:32.707Z,46.85
2022-08-26T18:44:00.741Z,46.63
2022-08-26T18:46:28.804Z,46.59
2022-08-26T18:48:58.483Z,46.76
2022-08-26T18:51:32.914Z,46.61
2022-08-26T18:54:03.359Z,45.96
2022-08-26T18:56:32.239Z,45.84
2022-08-26T18:59:00.424Z,45.87
2022-08-26T19:01:30.128Z,45.44
2022-08-26T19:04:02.494Z,45.41
2022-08-26T19:06:33.723Z,45.27
2022-08-26T19:09:03.891Z,45.37
2022-08-26T19:11:42.316Z,46.21
2022-08-26T19:14:13.865Z,46.17
2022-08-26T19:16:45.930Z,46.70
2022-08-26T19:19:14.939Z,47.52
2022-08-26T19:21:43.135Z,48.33
2022-08-26T19:24:15.599Z,48.97
2022-08-26T19:26:45.956Z,48.89
2022-08-26T19:29:15.730Z,48.56
2022-08-26T19:31:44.173Z,48.84
2022-08-26T19:34:18.308Z,49.41
2022-08-26T19:36:49.644Z,49.83
2022-08-26T19:39:17.682Z,49.73
2022-08-26T19:41:45.589Z,49.87
2022-08-26T19:44:39.393Z,50.48
2022-08-26T19:47:09.801Z,51.01
2022-08-26T19:49:38.260Z,51.49
2022-08-26T19:52:06.351Z,51.55
2022-08-26T19:54:36.199Z,51.61
2022-08-26T19:57:04.950Z,51.72
2022-08-26T19:59:33.770Z,51.96
2022-08-26T20:02:05.059Z,52.58
2022-08-26T20:04:36.120Z,52.91
2022-08-26T20:07:05.337Z,53.10
2022-08-26T20:09:34.226Z,52.80
2022-08-26T20:12:04.372Z,51.97
2022-08-26T20:14:33.921Z,51.48
2022-08-26T20:17:04.759Z,51.57
2022-08-26T20:19:53.728Z,51.26
2022-08-26T20:22:23.438Z,51.83
2022-08-26T20:24:52.172Z,51.77
2022-08-26T20:27:22.278Z,52.14
2022-08-26T20:29:50.193Z,52.57
2022-08-26T20:32:19.619Z,53.40
2022-08-26T20:34:47.781Z,53.35
2022-08-26T20:37:16.683Z,53.39
2022-08-26T20:39:49.409Z,53.43
2022-08-26T20:42:20.009Z,53.52
2022-08-26T20:44:54.494Z,53.85
2022-08-26T20:47:23.278Z,53.89
2022-08-26T20:49:52.640Z,54.07
2022-08-26T20:52:20.922Z,53.92
2022-08-26T20:54:48.912Z,53.84
2022-08-26T20:57:16.917Z,53.96
2022-08-26T20:59:45.016Z,54.20
2022-08-26T21:02:12.921Z,54.93
2022-08-26T21:04:40.859Z,55.42
2022-08-26T21:07:08.822Z,55.52
2022-08-26T21:09:36.772Z,55.39
2022-08-26T21:12:06.705Z,55.20
2022-08-26T21:14:34.702Z,55.23
2022-08-26T21:17:02.683Z,55.21
2022-08-26T21:19:30.720Z,55.45
2022-08-26T21:21:59.611Z,55.82
2022-08-26T21:24:27.613Z,56.01
2022-08-26T21:26:55.598Z,56.33
2022-08-26T21:29:23.576Z,56.59
2022-08-26T21:31:51.579Z,56.73
2022-08-26T21:34:20.280Z,56.96
2022-08-26T21:36:48.897Z,57.24
2022-08-26T21:39:16.909Z,57.39
2022-08-26T21:41:45.742Z,57.46
2022-08-26T21:44:14.884Z,57.77
2022-08-26T21:46:44.395Z,57.94
2022-08-26T21:49:15.615Z,58.39
2022-08-26T21:51:45.977Z,58.61
2022-08-26T21:54:15.629Z,58.87
2022-08-26T21:56:46.583Z,58.77
2022-08-26T21:59:18.431Z,59.42
2022-08-26T22:01:47.082Z,59.48
2022-08-26T22:04:15.662Z,59.56
2022-08-26T22:06:54.947Z,59.29
2022-08-26T22:09:25.510Z,59.99
2022-08-26T22:11:56.819Z,60.17
2022-08-26T22:14:30.900Z,59.82
2022-08-26T22:16:59.959Z,59.79
2022-08-26T22:19:28.086Z,59.49
2022-08-26T22:21:56.108Z,59.35
2022-08-26T22:24:25.805Z,59.51
2022-08-26T22:26:54.601Z,59.68
2022-08-26T22:29:24.397Z,59.95
2022-08-26T22:31:52.925Z,59.85
2022-08-26T22:34:23.101Z,60.03
2022-08-26T22:36:51.401Z,60.30
2022-08-26T22:39:22.389Z,60.39
2022-08-26T22:41:52.106Z,60.48
2022-08-26T22:44:22.105Z,60.67
2022-08-26T22:46:54.373Z,60.69
2022-08-26T22:49:23.302Z,60.68
2022-08-26T22:51:51.244Z,60.53
2022-08-26T22:54:19.602Z,60.58
2022-08-26T22:56:47.543Z,60.62
2022-08-26T22:59:16.265Z,61.34
2022-08-26T23:01:44.729Z,61.70
2022-08-26T23:04:12.660Z,61.28
2022-08-26T23:06:43.355Z,61.43
2022-08-26T23:09:18.206Z,61.51
2022-08-26T23:11:48.368Z,61.57
2022-08-26T23:14:17.654Z,62.07
2022-08-26T23:16:45.815Z,62.27
2022-08-26T23:19:15.546Z,62.14
2022-08-26T23:21:43.767Z,62.45
2022-08-26T23:24:12.098Z,62.62
2022-08-26T23:26:41.634Z,62.59
2022-08-26T23:29:11.575Z,62.76
2022-08-26T23:31:41.283Z,62.48
2022-08-26T23:34:27.771Z,62.91
2022-08-26T23:36:59.061Z,63.35
2022-08-26T23:39:28.566Z,63.46
2022-08-26T23:44:50.118Z,63.27
2022-08-26T23:47:18.059Z,63.72
2022-08-26T23:49:45.954Z,63.64
2022-08-26T23:52:32.854Z,63.57
2022-08-26T23:55:00.759Z,63.58
2022-08-26T23:57:29.712Z,63.33
2022-08-26T23:59:57.936Z,63.91
